Wednesday, October 22, 2014
12:20 UTC
  |  Log In   |  Register Free
Airport Search:

Firelands Community Hospital Nr 2 Airport
(OI87)

Firelands Community Hospital Nr 2 Airport Diagram
No Airport Diagram Available

FAA data valid effective September 18, 2014 - November 13, 2014 (unless otherwise noted).

 
 
 
 
 
 
 
 
 
 
 
 
 
 

Current Aviation Weather for Firelands Community Hospital Nr 2 Airport (OI87)

METAR data is unavailable for OI87. The nearest METAR location is at KPCW (8.2 nm NW from OI87).

The most recent METAR observation for KPCW was updated at: 1216
METAR Summary (Translated METAR)
KPCW
221053Z AUTO 04007KT 10SM OVC017 07/04 A3023 RMK AO2 T00720044 $
(8.2 nm NW from OI87)
KLPR
221153Z AUTO 01008KT 10SM OVC015 08/06 A3023 RMK AO2 SLP241 70022 T00830061 10089 20083 51021 TSNO
(24.8 nm SE from OI87)
TAF
No TAF information found within 50 nm of KLPR
  Airport Weather Conditions for OI87

Current weather conditions are
not available for OI87


The nearest NOAA weather station
is at LPR, (24.8 nm SE from OI87)
  
 Current Weather at LPR
47° F
Overcast
North winds at 9.2 mph
LPR NOAA Radar

Pressure: 30.23 in
Humidity: 86%
Wind: North at 9.2 MPH (8 KT)
Dew Point: 43.0°F
Visibility: 10.00 mi


Airport Weather Forecast for OI87

Translated METAR and TAF for KLPR
Translated METAR for KLPR (1215 UTC 22 October 2014)
found at http://aviationweather.gov/adds/metars/
 
METAR text: KLPR 221153Z AUTO 01008KT 10SM OVC015 08/06 A3023 RMK AO2 SLP241 70022 T00830061 10089 20083 51021 TSNO
Conditions at: KLPR (LORAIN/ELYRIA , OH, US) observed 1153 UTC 22 October 2014
Temperature: 8.3°C (47°F)
Dewpoint: 6.1°C (43°F) [RH = 86%]
Pressure (altimeter): 30.23 inches Hg (1023.8 mb)
[Sea-level pressure: 1024.1 mb]
Winds: from the N (10 degrees) at 9 MPH (8 knots; 4.2 m/s)
Visibility: 10 or more miles (16+ km)
Ceiling: 1500 feet AGL
Clouds: overcast cloud deck at 1500 feet AGL
Weather: automated observation with no human augmentation;
there may or may not be significant weather present at this time
Translated TAF for KLPR

There is no translated TAF available for this airport

Find All Airport Services Find A Hotel Find A Rental Car Find A Golf Course Find A Restaurant $100 Hamburger



FBO's on the Field
FBO Company Facility Photos Services Transportation Aviation Fuel Prices: Prices include tax
Catering Weather Repair Courtesy Rental Type 100LL JetA JetA+ MOGAS 8087
 
Add another FBO Facility Photos Catering Weather Repair Courtesy Rental Type 100LL JetA JetA+ MOGAS 8087
Services Transportation Aviation Fuel Prices: Prices include tax
There are no FBO's currently reporting fuel at OI87. List your FBO now


model-print
model-print
model-print
model-print